Aeroporto :
LOGIN :

Iscrizione | Disclaimer

   EN    FR    IT 

 










Sommario :    VFR   VFR Marginale   IFR   IFR Intensivo   IFR Molto Intensivo
Visibilità : 
Base nubi : 
>= 8 km
>= 3000ft
5 / 8 km
1000 / 3000 ft
1500m / 5 km
500 / 1000 ft
800 / 1500m
200 / 500 ft
< 800m
< 200 ft
Simboli :   Temporali  Nebbia  Neve Forte  Precipitazioni Forti  Vento > 20 kt
SIGMETs :   Varie  Temporali  Ghiacco  Turbolenza  Onda orograficha  Ceneri Vulcaniche






- Altitudine del aeroporto : 28 ft
- Codice IATA : SOZ


LFKS - Solenzara

ULTIMO METAR :
  • 200800Z AUTO VRB02KT 9999 BKN016 25/20 Q1015

METARs OBSOLETI :
  • 200730Z AUTO VRB01KT 9999 BKN017 23/20 Q1015
  • 200700Z AUTO 23001KT 9999 NSC 23/20 Q1014
  • 200630Z AUTO 18002KT 9999 ///TCU 23/20 Q1014
  • 200600Z AUTO VRB02KT 9999 ///CB 23/19 Q1015
  • 200530Z AUTO 33007KT 290V360 9999 VCTS FEW017/// SCT220/// BKN240/// ///CB 22/19 Q1014
  • 200500Z AUTO 27004KT 230V340 9999 OVC016/// ///CB 22/19 Q1014

TAF TAF LFKS
Valido dal 20 a 03 ore il 21 a 03 ore UTC


200200Z 2003/2103 15008KT CAVOK



MetMap, La meteo Aeronautica in un colpo d'occhio ! - Copyright ORBIFLY Dicembre 2007 - Disclaimer

ORBIFLY MET'MAP TEAM :

Programmazione e sviluppo : Alexandra Zaïnal
Concezione : Baudouin d'Aumeries
Aiuto per la programmazione : Marc-Olivier Méhu
Supporto tecnico e logistico : Manuel Goepfert
Aiuto per la traduzione : Arnaldo La Scala

Contatto : metmap@orbifly.com




FONTI E CREDITI :

   NOAA